ADDS METAR Data INFO
IDs: Format: Raw Decoded Include TAF

Data at: 0035 UTC 23 Oct 2017

KM30 230015Z AUTO 31003KT 7SM -RA SCT005 BKN021 OVC031 20/19 A2994 RMK AO2 T01950191
KM30 222355Z AUTO 00000KT 7SM -RA BKN028 OVC034 20/19 A2994 RMK AO2 T01950191 10249 20195
KM30 222335Z AUTO 00000KT 7SM RA BKN028 OVC034 20/19 A2994 RMK AO2 T01950191
KM30 222315Z AUTO 00000KT 7SM -RA OVC031 20/19 A2994 RMK AO2 T01960191
KM30 222255Z AUTO 20003KT 3SM -RA SCT005 BKN031 OVC041 20/19 A2995 RMK AO2 T01960191
KM30 222235Z AUTO 21004KT 1 1/4SM +RA BKN003 OVC019 20/19 A2996 RMK AO2 T01960191
KM30 222215Z AUTO 25005KT 1 3/4SM +RA BKN005 BKN019 OVC026 20/19 A2996 RMK AO2 T01960191
KM30 222155Z AUTO 23006KT 2 1/2SM +RA SCT023 BKN035 OVC060 20/19 A2996 RMK AO2 T01990190
KM30 222135Z AUTO 22005KT 4SM RA OVC036 21/19 A2996 RMK AO2 T02120185
KM30 222115Z AUTO 17004KT 10SM RA BKN038 BKN044 OVC060 23/18 A2995 RMK AO2 T02280176
KM30 222055Z AUTO 17006KT 10SM SCT041 OVC060 24/17 A2995 RMK AO2 T02400170
KM30 222035Z AUTO 16005KT 10SM BKN041 BKN048 OVC060 24/17 A2996 RMK AO2 T02430170
KM30 222015Z AUTO 18008G15KT 10SM BKN041 OVC060 25/17 A2996 RMK AO2 T02470167
KM30 221955Z AUTO 16007KT 10SM OVC041 25/17 A2997 RMK AO2 T02460167
KM30 221935Z AUTO 17005KT 10SM OVC041 25/17 A2997 RMK AO2 T02450167
KM30 221915Z AUTO 17006KT 10SM OVC041 25/17 A2998 RMK AO2 T02460167
KM30 221855Z AUTO 16005KT 10SM OVC039 24/17 A2999 RMK AO2 T02420166
KM30 221835Z AUTO 16005KT 10SM OVC039 24/17 A2999 RMK AO2 T02430167
KM30 221815Z AUTO 16005G16KT 10SM OVC039 25/17 A2999 RMK AO2 T02450168
KM30 221755Z AUTO 17010G14KT 10SM OVC039 25/17 A3000 RMK AO2 T02460170 10246 20183
KM30 221735Z AUTO 17008G14KT 10SM OVC035 24/17 A3001 RMK AO2 T02420169
KM30 221715Z AUTO 17007KT 10SM OVC035 24/17 A3001 RMK AO2 T02390171
KM30 221655Z AUTO 17005KT 10SM OVC033 24/17 A3002 RMK AO2 T02350172
KM30 221635Z AUTO 18006G14KT 10SM OVC033 24/17 A3002 RMK AO2 T02350171
KM30 221615Z AUTO 16009G15KT 10SM OVC035 24/17 A3002 RMK AO2 T02350170
KM30 221555Z AUTO 16007KT 10SM BKN033 BKN048 23/17 A3003 RMK AO2 T02300172
KM30 221535Z AUTO 16006G15KT 140V200 10SM SCT027 SCT048 23/17 A3002 RMK AO2 T02250171
KM30 221515Z AUTO 16009G14KT 10SM SCT060 23/18 A3002 RMK AO2 T02290175
KM30 221455Z AUTO 16006KT 10SM SCT025 SCT060 SCT110 22/17 A3004 RMK AO2 T02170173
KM30 221435Z AUTO 14007KT 10SM BKN110 21/17 A3003 RMK AO2 T02070172
KM30 221415Z AUTO 14007G14KT 10SM BKN100 21/17 A3003 RMK AO2 T02050173
KM30 221355Z AUTO 13006KT 10SM CLR 19/17 A3004 RMK AO2 T01930172
KM30 221335Z AUTO 12004KT 10SM SCT060 SCT120 19/17 A3003 RMK AO2 T01880172
KM30 221315Z AUTO 15005KT 10SM OVC060 18/17 A3004 RMK AO2 T01830170
KM30 221255Z AUTO 14006KT 7SM VCTSRA OVC050 19/16 A3004 RMK AO2 LTG DSNT NE AND E T01900164
KM30 221235Z AUTO 14007KT 10SM -TSRA BKN050 OVC065 19/16 A3003 RMK AO2 T01940162
KM30 221215Z AUTO 15005KT 10SM BKN050 OVC060 20/16 A3003 RMK AO2 T01980160
KM30 221155Z AUTO 16007KT 10SM BKN050 OVC060 20/16 A3003 RMK AO2 LTG DSNT S T02000160 10212 20200
KM30 221135Z AUTO 15006G14KT 10SM -RA BKN060 OVC095 20/16 A3003 RMK AO2 LTG DSNT W T02010160
KM30 221115Z AUTO 16004G14KT 10SM BKN060 BKN095 20/16 A3002 RMK AO2 LTG DSNT SW T02020158
KM30 221055Z AUTO 16006KT 10SM SCT080 SCT120 20/16 A3002 RMK AO2 T02020158
KM30 221035Z AUTO 15008G17KT 120V180 10SM SCT055 SCT080 OVC085 20/16 A3001 RMK AO2 T02030160
KM30 221015Z AUTO 14008KT 10SM OVC065 20/16 A3002 RMK AO2 T02030160
KM30 220955Z AUTO 15008G14KT 10SM OVC065 20/16 A3002 RMK AO2 T02030160
KM30 220935Z AUTO 15008KT 120V190 10SM OVC065 20/16 A3003 RMK AO2 LTG DSNT W T02020160
KM30 220915Z AUTO 15008G14KT 10SM BKN060 20/16 A3003 RMK AO2 T02010160
KM30 220855Z AUTO 15007G15KT 10SM CLR 20/16 A3002 RMK AO2 T02010160
KM30 220835Z AUTO 15007KT 10SM SCT110 20/16 A3002 RMK AO2 T02020160
KM30 220815Z AUTO 15007G15KT 10SM OVC110 21/16 A3003 RMK AO2 T02060160
KM30 220755Z AUTO 16009G16KT 120V190 10SM OVC110 21/16 A3003 RMK AO2 T02080160
KM30 220735Z AUTO 15009G17KT 10SM OVC095 21/16 A3003 RMK AO2 T02100160
KM30 220715Z AUTO 16008KT 100V170 10SM OVC095 21/16 A3004 RMK AO2 T02100160
KM30 220655Z AUTO 15008G16KT 10SM OVC095 21/16 A3004 RMK AO2 T02110160
KM30 220635Z AUTO 15009KT 10SM BKN095 21/16 A3005 RMK AO2 T02100160
KM30 220615Z AUTO 16006KT 10SM OVC095 21/16 A3007 RMK AO2 T02120158
KM30 220555Z AUTO 16006KT 120V190 10SM OVC095 21/16 A3007 RMK AO2 LTG DSNT W T02110157 10230 20203 402730114
KM30 220535Z AUTO 16003KT 10SM BKN095 21/16 A3007 RMK AO2 T02050160
KM30 220515Z AUTO 15004KT 10SM BKN095 21/16 A3007 RMK AO2 T02050160
KM30 220455Z AUTO 15004KT 10SM BKN095 21/16 A3007 RMK AO2 LTG DSNT NW T02050161
KM30 220435Z AUTO 14005KT 10SM SCT095 21/16 A3008 RMK AO2 T02070163
KM30 220415Z AUTO 16004KT 10SM CLR 21/16 A3008 RMK AO2 T02070164
KM30 220355Z AUTO 15006KT 10SM CLR 21/16 A3007 RMK AO2 T02080164
KM30 220335Z AUTO 14005KT 10SM CLR 21/16 A3008 RMK AO2 T02090162
KM30 220315Z AUTO 15006KT 10SM CLR 21/16 A3008 RMK AO2 T02120162
KM30 220255Z AUTO 14004KT 10SM CLR 21/16 A3009 RMK AO2 T02140162
KM30 220235Z AUTO 15005KT 10SM CLR 21/16 A3009 RMK AO2 T02120161
KM30 220215Z AUTO 14006KT 10SM CLR 21/16 A3009 RMK AO2 T02120160
KM30 220155Z AUTO 14005KT 10SM CLR 22/16 A3009 RMK AO2 T02150157
KM30 220135Z AUTO 14005KT 10SM CLR 22/16 A3009 RMK AO2 T02200156
KM30 220115Z AUTO 14005KT 10SM CLR 22/16 A3009 RMK AO2 T02200155
KM30 220055Z AUTO 13004KT 10SM CLR 22/16 A3009 RMK AO2 T02190155
KM30 220035Z AUTO 14003KT 10SM CLR 22/16 A3009 RMK AO2 T02210155
KM30 220015Z AUTO 13003KT 10SM CLR 23/15 A3009 RMK AO2 T02250153
KM30 212355Z AUTO 13006KT 10SM CLR 23/16 A3009 RMK AO2 T02300155 10273 20230
KM30 212335Z AUTO 14003KT 10SM CLR 23/16 A3009 RMK AO2 T02340155
KM30 212315Z AUTO 14006KT 10SM CLR 24/15 A3008 RMK AO2 T02390154
KM30 212255Z AUTO 13004KT 10SM CLR 25/15 A3008 RMK AO2 T02450152
KM30 212235Z AUTO 16006KT 10SM SCT050 26/15 A3009 RMK AO2 T02560150
KM30 212215Z AUTO 16004KT 10SM SCT055 26/15 A3009 RMK AO2 T02610148
KM30 212155Z AUTO 17005KT 10SM SCT055 26/15 A3009 RMK AO2 T02550145
KM30 212135Z AUTO 12003KT 10SM SCT055 27/14 A3009 RMK AO2 T02660138
KM30 212115Z AUTO 14004KT 10SM CLR 26/14 A3009 RMK AO2 T02620136
KM30 212055Z AUTO 17004KT 10SM CLR 26/14 A3009 RMK AO2 T02600135
KM30 212035Z AUTO 17006KT 10SM CLR 27/13 A3009 RMK AO2 T02670134
KM30 212015Z AUTO 17008G14KT 10SM SCT046 27/13 A3009 RMK AO2 T02720130
KM30 211955Z AUTO 16004KT 10SM BKN044 27/13 A3009 RMK AO2 T02710131
KM30 211935Z AUTO 14007KT 10SM CLR 27/13 A3010 RMK AO2 T02670127
KM30 211915Z AUTO 16007G14KT 110V190 10SM SCT040 SCT046 26/13 A3010 RMK AO2 T02620126
KM30 211855Z AUTO 18008KT 120V180 10SM BKN042 26/13 A3011 RMK AO2 T02620132
KM30 211835Z AUTO 16005KT 10SM SCT040 25/13 A3012 RMK AO2 T02490129
KM30 211815Z AUTO 18005KT 10SM CLR 25/13 A3012 RMK AO2 T02460131
KM30 211755Z AUTO 16003KT 10SM SCT039 24/13 A3012 RMK AO2 T02420127 10244 20141
KM30 211735Z AUTO 15006KT 10SM SCT039 24/12 A3014 RMK AO2 T02390121
KM30 211715Z AUTO 17003KT 10SM CLR 23/12 A3014 RMK AO2 T02340122
KM30 211655Z AUTO 17004KT 10SM CLR 24/12 A3014 RMK AO2 T02440123
KM30 211635Z AUTO 15008KT 10SM CLR 24/12 A3015 RMK AO2 T02350119
KM30 211615Z AUTO 18007KT 10SM CLR 23/11 A3016 RMK AO2 T02300114
KM30 211555Z AUTO 18004KT 10SM SCT060 22/12 A3016 RMK AO2 T02180115
KM30 211535Z AUTO 15003KT 10SM SCT050 BKN060 21/12 A3017 RMK AO2 T02120115
KM30 211515Z AUTO 14004KT 10SM SCT050 OVC060 20/11 A3017 RMK AO2 T02010112
KM30 211455Z AUTO 16003KT 10SM OVC050 19/11 A3017 RMK AO2 T01900111
KM30 211435Z AUTO 13003KT 10SM BKN050 18/12 A3017 RMK AO2 T01830116
KM30 211415Z AUTO 00000KT 10SM CLR 17/11 A3017 RMK AO2 T01710110
KM30 211355Z AUTO 00000KT 10SM CLR 16/11 A3017 RMK AO2 T01640111
KM30 211335Z AUTO 12003KT 10SM CLR 15/11 A3017 RMK AO2 T01530106
KM30 211315Z AUTO 00000KT 10SM CLR 15/10 A3016 RMK AO2 T01490103
KM30 211255Z AUTO 00000KT 10SM SCT048 15/10 A3016 RMK AO2 T01450102